Terminal Aerodrome Forecast
Issued by NWS Bismarck, ND

Home | Current Version | Previous Version | Text Only | Print | Product List | Glossary On
Versions: 1 2 3 4 5 6 7 8 9 10 11 12 13 14 15 16 17 18 19 20 21 22 23
000
FTUS43 KBIS 271700
TAFBIS
TAF
KBIS 271736Z 2718/2818 13005KT P6SM SCT020
     FM272200 15005KT P6SM BKN040
     FM280500 14004KT P6SM SCT015 BKN040
     FM281600 18005KT P6SM SCT020 BKN060=

USA.gov is the U.S. government's official web portal to all federal, state and local government web resources and services.